createdAt,value
2022-11-21T00:04:31.492Z,21.6
2022-11-21T00:10:08.669Z,21.6
2022-11-21T00:15:45.944Z,21.6
2022-11-21T00:21:13.078Z,21.6
2022-11-21T00:26:38.655Z,21.6
2022-11-21T00:32:15.894Z,21.6
2022-11-21T00:37:37.515Z,21.6
2022-11-21T00:43:14.615Z,21.6
2022-11-21T00:48:36.280Z,21.6
2022-11-21T00:53:57.784Z,21.6
2022-11-21T00:59:03.278Z,21.6
2022-11-21T01:04:41.129Z,21.6
2022-11-21T01:10:02.301Z,21.6
2022-11-21T01:14:53.592Z,21.6
2022-11-21T01:20:31.633Z,21.6
2022-11-21T01:26:08.912Z,21.6
2022-11-21T01:31:46.113Z,21.6
2022-11-21T01:37:08.863Z,21.6
2022-11-21T01:42:30.889Z,21.6
2022-11-21T01:48:09.165Z,21.6
2022-11-21T01:53:54.201Z,21.5
2022-11-21T01:59:01.253Z,21.6
2022-11-21T02:04:24.209Z,21.5
2022-11-21T02:09:47.192Z,21.5
2022-11-21T02:14:53.700Z,21.6
2022-11-21T02:20:16.189Z,21.6
2022-11-21T02:25:29.391Z,21.6
2022-11-21T02:30:35.184Z,21.7
2022-11-21T02:35:56.672Z,21.8
2022-11-21T02:41:19.091Z,21.8
2022-11-21T02:46:42.385Z,21.9
2022-11-21T02:52:20.037Z,22.1
2022-11-21T02:58:01.689Z,22.1
2022-11-21T03:03:26.383Z,22.3
2022-11-21T03:09:04.935Z,22.4
2022-11-21T03:14:43.205Z,22.4
2022-11-21T03:20:04.819Z,22.5
2022-11-21T03:25:42.276Z,22.5
2022-11-21T03:31:20.325Z,22.6
2022-11-21T03:36:57.633Z,22.7
2022-11-21T03:42:36.174Z,22.8
2022-11-21T03:47:58.942Z,22.8
2022-11-21T03:53:36.196Z,22.8
2022-11-21T03:58:58.513Z,22.9
2022-11-21T04:04:42.642Z,22.9
2022-11-21T04:10:20.259Z,22.9
2022-11-21T04:16:03.284Z,22.9
2022-11-21T04:21:41.679Z,23
2022-11-21T04:27:18.303Z,23
2022-11-21T04:32:56.946Z,23
2022-11-21T04:38:04.268Z,23.1
2022-11-21T04:43:41.514Z,23.1
2022-11-21T04:49:07.108Z,23.1
2022-11-21T04:54:49.913Z,23.1
2022-11-21T04:59:56.716Z,23.1
2022-11-21T05:05:35.487Z,23.1
2022-11-21T05:10:42.012Z,23.1
2022-11-21T05:16:19.812Z,23.1
2022-11-21T05:22:00.543Z,23.1
2022-11-21T05:27:22.428Z,23.2
2022-11-21T05:32:47.941Z,23.1
2022-11-21T05:38:31.332Z,23.2
2022-11-21T05:44:09.036Z,23.2
2022-11-21T05:49:31.038Z,23.2
2022-11-21T05:54:39.595Z,23.1
2022-11-21T06:00:20.043Z,23.1
2022-11-21T06:05:48.126Z,23.1
2022-11-21T06:11:30.831Z,23.1
2022-11-21T06:16:56.827Z,23.1
2022-11-21T06:22:08.345Z,23.1
2022-11-21T06:27:47.736Z,23.1
2022-11-21T06:33:30.753Z,23.1
2022-11-21T06:38:59.156Z,23.1
2022-11-21T06:44:37.310Z,23.1
2022-11-21T06:50:01.090Z,23
2022-11-21T06:55:41.177Z,23
2022-11-21T07:01:18.887Z,23
2022-11-21T07:07:02.414Z,23
2022-11-21T07:13:43.076Z,23
2022-11-21T07:19:21.273Z,23
2022-11-21T07:25:02.215Z,22.9
2022-11-21T07:30:41.497Z,22.9
2022-11-21T07:36:19.871Z,22.9
2022-11-21T07:41:42.641Z,22.9
2022-11-21T07:47:25.746Z,22.9
2022-11-21T07:52:48.061Z,22.9
2022-11-21T07:58:31.421Z,22.9
2022-11-21T08:03:55.305Z,22.9
2022-11-21T08:09:38.683Z,22.9
2022-11-21T08:15:17.616Z,22.9
2022-11-21T08:20:55.561Z,22.9
2022-11-21T08:26:38.721Z,22.8
2022-11-21T08:32:23.122Z,22.8
2022-11-21T08:38:01.396Z,22.8
2022-11-21T08:43:24.309Z,22.8
2022-11-21T08:49:15.014Z,22.8
2022-11-21T08:54:57.629Z,22.8
2022-11-21T09:00:36.752Z,22.8
2022-11-21T09:06:21.131Z,22.8
2022-11-21T09:11:45.973Z,22.8
2022-11-21T09:17:32.314Z,22.8
2022-11-21T09:23:12.331Z,22.8
2022-11-21T09:28:49.987Z,22.8
2022-11-21T09:34:28.794Z,22.8
2022-11-21T09:40:09.249Z,22.8
2022-11-21T09:45:47.436Z,22.8
2022-11-21T09:51:27.432Z,22.8
2022-11-21T09:57:06.004Z,22.8
2022-11-21T10:02:43.809Z,22.8
2022-11-21T10:08:29.652Z,22.8
2022-11-21T10:14:11.108Z,22.8
2022-11-21T10:19:51.162Z,22.7
2022-11-21T10:25:29.621Z,22.7
2022-11-21T10:31:08.451Z,22.7
2022-11-21T10:36:46.913Z,22.7
2022-11-21T10:42:29.498Z,22.7
2022-11-21T10:47:52.678Z,22.7
2022-11-21T10:53:30.700Z,22.7
2022-11-21T10:59:13.115Z,22.7
2022-11-21T11:05:37.000Z,22.7
2022-11-21T11:11:01.744Z,22.6
2022-11-21T11:16:58.331Z,22.7
2022-11-21T11:22:48.557Z,22.6
2022-11-21T11:28:12.315Z,22.6
2022-11-21T11:33:50.539Z,22.7
2022-11-21T11:39:13.301Z,22.7
2022-11-21T11:44:38.069Z,22.7
2022-11-21T11:50:46.642Z,22.7
2022-11-21T11:56:24.697Z,22.7
2022-11-21T12:02:06.364Z,22.7
2022-11-21T12:09:28.275Z,22.6
2022-11-21T12:15:07.548Z,22.6
2022-11-21T12:20:54.142Z,22.6
2022-11-21T12:26:33.684Z,22.6
2022-11-21T12:32:12.166Z,22.6
2022-11-21T12:38:03.502Z,22.6
2022-11-21T12:43:50.812Z,22.6
2022-11-21T12:49:14.536Z,22.6
2022-11-21T12:54:58.963Z,22.6
2022-11-21T13:00:25.225Z,22.6
2022-11-21T13:06:10.396Z,22.6
2022-11-21T13:11:50.213Z,22.6
2022-11-21T13:17:29.121Z,22.6
2022-11-21T13:23:06.701Z,22.6
2022-11-21T13:28:30.574Z,22.6
2022-11-21T13:34:10.710Z,22.6
2022-11-21T13:39:49.479Z,22.6
2022-11-21T13:46:06.327Z,22.6
2022-11-21T13:51:51.887Z,22.6
2022-11-21T13:57:38.115Z,22.6
2022-11-21T14:03:16.652Z,22.6
2022-11-21T14:08:56.225Z,22.6
2022-11-21T14:14:38.589Z,22.6
2022-11-21T14:20:16.255Z,22.6
2022-11-21T14:26:00.138Z,22.6
2022-11-21T14:31:44.675Z,22.6
2022-11-21T14:37:26.208Z,22.6
2022-11-21T14:43:43.752Z,22.5
2022-11-21T14:49:11.734Z,22.5
2022-11-21T15:01:35.287Z,22.5
2022-11-21T15:07:47.271Z,22.5
2022-11-21T15:15:22.380Z,22.4
2022-11-21T15:21:35.615Z,22.4
2022-11-21T15:27:13.452Z,22.4
2022-11-21T15:32:56.042Z,22.4
2022-11-21T15:39:13.721Z,22.4
2022-11-21T16:02:03.891Z,22.4
2022-11-21T16:07:33.826Z,22.4
2022-11-21T16:13:18.305Z,22.4
2022-11-21T16:19:01.303Z,22.4
2022-11-21T16:24:47.350Z,22.4
2022-11-21T16:30:09.875Z,22.4
2022-11-21T16:35:48.861Z,22.4
2022-11-21T16:41:36.689Z,22.3
2022-11-21T16:47:02.376Z,22.3
2022-11-21T16:52:42.063Z,22.4
2022-11-21T16:58:24.340Z,22.4
2022-11-21T17:03:49.024Z,22.4
2022-11-21T17:09:27.948Z,22.4
2022-11-21T17:14:50.230Z,22.4
2022-11-21T17:20:13.181Z,22.4
2022-11-21T17:25:52.267Z,22.4
2022-11-21T17:31:36.449Z,22.4
2022-11-21T17:37:17.770Z,22.4
2022-11-21T17:42:57.145Z,22.3
2022-11-21T17:48:41.974Z,22.3
2022-11-21T17:53:50.452Z,22.3
2022-11-21T17:59:36.763Z,22.3
2022-11-21T18:05:22.554Z,22.3
2022-11-21T18:11:14.623Z,22.3
2022-11-21T18:17:09.138Z,22.2
2022-11-21T18:22:32.600Z,22.3
2022-11-21T18:28:11.701Z,22.2
2022-11-21T18:33:52.933Z,22.2
2022-11-21T18:39:45.827Z,22.2
2022-11-21T18:45:29.541Z,22.2
2022-11-21T18:51:38.413Z,22.2
2022-11-21T18:57:21.088Z,22.2
2022-11-21T19:02:45.135Z,22.1
2022-11-21T19:08:12.923Z,22.1
2022-11-21T19:13:52.447Z,22.1
2022-11-21T19:20:06.990Z,22.1
2022-11-21T19:25:46.669Z,22.2
2022-11-21T19:31:26.260Z,22.8
2022-11-21T19:37:09.121Z,23.3
2022-11-21T19:42:34.910Z,23.8
2022-11-21T19:48:00.646Z,24.1
2022-11-21T19:53:51.184Z,24.4
2022-11-21T19:59:00.960Z,24.7
2022-11-21T20:04:28.980Z,24.9
2022-11-21T20:10:09.009Z,25.1
2022-11-21T20:15:54.884Z,25.1
2022-11-21T20:21:18.995Z,25.1
2022-11-21T20:27:01.853Z,25.1
2022-11-21T20:32:45.725Z,25.1
2022-11-21T20:39:16.060Z,25
2022-11-21T20:46:57.186Z,24.9
2022-11-21T20:55:37.646Z,24.8
2022-11-21T21:01:18.027Z,24.7
2022-11-21T21:06:57.097Z,24.7
2022-11-21T21:13:21.411Z,24.6
2022-11-21T21:18:47.938Z,24.6
2022-11-21T21:24:56.052Z,24.5
2022-11-21T21:30:42.418Z,24.5
2022-11-21T21:36:24.885Z,24.4
2022-11-21T21:42:07.340Z,24.4
2022-11-21T21:47:46.563Z,24.4
2022-11-21T21:53:24.913Z,24.4
2022-11-21T21:59:09.509Z,24.3
2022-11-21T22:04:51.934Z,24.3
2022-11-21T22:09:59.225Z,24.3
2022-11-21T22:15:36.594Z,24.2
2022-11-21T22:21:15.408Z,24.2
2022-11-21T22:27:11.667Z,24.1
2022-11-21T22:32:36.551Z,24.1
2022-11-21T22:38:15.221Z,24.1
2022-11-21T22:43:43.269Z,24
2022-11-21T22:49:21.817Z,24
2022-11-21T22:54:47.934Z,23.9
2022-11-21T23:00:25.875Z,23.9
2022-11-21T23:06:04.143Z,23.9
2022-11-21T23:11:42.899Z,23.8
2022-11-21T23:17:05.696Z,23.8
2022-11-21T23:22:13.087Z,23.8
2022-11-21T23:27:35.501Z,23.8
2022-11-21T23:32:58.072Z,23.8
2022-11-21T23:38:34.898Z,23.7
2022-11-21T23:44:13.211Z,23.7
2022-11-21T23:49:35.810Z,23.6
2022-11-21T23:54:57.934Z,23.6
